Terminal Aerodrome Forecast
Issued by NWS

Home | Current Version | Previous Version | Text Only | Print | Product List | Glossary On
Versions: 1 2 3 4 5 6 7 8 9 10 11 12 13 14 15 16 17 18
000
FTUS41 KGYX 240529
TAFAUG
TAF
KAUG 240529Z 2406/2506 16006KT 1/4SM FG OVC002
     FM241100 16008KT 1/2SM FG OVC002
     FM241300 16009KT 2SM BR OVC003
     FM241600 16010G20KT 5SM BR OVC015
     FM250000 17012G21KT 3SM -RA BR OVC003=

USA.gov is the U.S. government's official web portal to all federal, state and local government web resources and services.